Time;durP1;ratioP1;P1;durP2;ratioP2;P2;SDS_P1;SDS_P2;PMS_P1;PMS_P2;Temp;Humidity;BMP_temperature;BMP_pressure;BME280_temperature;BME280_humidity;BME280_pressure;Samples;Min_cycle;Max_cycle;Signal;HPM_P1;HPM_P2
2023/10/01 00:00:43;;;;;;;;;;;15.20;96.50;;;;;;5090827;28;19930;-71
2023/10/01 00:03:09;;;;;;;;;;;15.20;96.50;;;;;;5089742;28;20350;-71
2023/10/01 00:05:35;;;;;;;;;;;15.20;96.50;;;;;;5089064;28;19995;-71
2023/10/01 00:08:01;;;;;;;;;;;15.20;96.50;;;;;;5090345;28;19916;-71
2023/10/01 00:10:26;;;;;;;;;;;15.20;96.50;;;;;;5090712;28;19916;-71
2023/10/01 00:12:53;;;;;;;;;;;15.20;96.50;;;;;;5088918;28;19916;-71
2023/10/01 00:15:21;;;;;;;;;;;15.20;96.50;;;;;;5088909;28;19965;-71
2023/10/01 00:17:50;;;;;;;;;;;15.10;96.50;;;;;;5095720;28;19912;-71
2023/10/01 00:22:51;;;;;;;;;;;15.10;96.50;;;;;;5090155;28;19912;-71
2023/10/01 00:25:18;;;;;;;;;;;15.10;96.50;;;;;;5090110;28;19912;-71
2023/10/01 00:27:43;;;;;;;;;;;15.10;96.50;;;;;;5107772;27;20387;-71
2023/10/01 00:30:10;;;;;;;;;;;15.10;96.50;;;;;;5088616;28;19916;-71
2023/10/01 00:32:36;;;;;;;;;;;15.10;96.50;;;;;;5090309;28;19908;-71
2023/10/01 00:35:04;;;;;;;;;;;15.10;96.60;;;;;;5089853;28;19916;-71
2023/10/01 00:37:30;;;;;;;;;;;15.00;96.50;;;;;;5090311;28;20352;-71
2023/10/01 00:39:58;;;;;;;;;;;15.10;96.60;;;;;;5088763;28;19912;-71
2023/10/01 00:42:24;;;;;;;;;;;15.00;96.50;;;;;;5081866;28;19934;-71
2023/10/01 00:44:50;;;;;;;;;;;15.00;96.60;;;;;;5089745;28;19916;-71
2023/10/01 00:47:16;;;;;;;;;;;15.00;96.50;;;;;;5089515;28;19939;-71
2023/10/01 00:49:46;;;;;;;;;;;15.00;96.50;;;;;;5090063;28;19917;-71
2023/10/01 00:52:12;;;;;;;;;;;15.00;96.60;;;;;;5089754;28;20364;-71
2023/10/01 00:54:38;;;;;;;;;;;15.00;96.60;;;;;;5089456;28;19908;-71
2023/10/01 00:57:03;;;;;;;;;;;15.00;96.60;;;;;;5089586;28;19915;-71
2023/10/01 00:59:32;;;;;;;;;;;14.90;96.60;;;;;;5089972;28;19912;-71
2023/10/01 01:01:59;;;;;;;;;;;14.90;96.60;;;;;;5088384;28;19994;-71
2023/10/01 01:04:28;;;;;;;;;;;15.00;96.60;;;;;;5088419;28;19912;-71
2023/10/01 01:06:54;;;;;;;;;;;14.90;96.50;;;;;;5088558;28;20010;-71
2023/10/01 01:09:20;;;;;;;;;;;14.90;96.60;;;;;;5089484;28;19926;-71
2023/10/01 01:11:47;;;;;;;;;;;14.90;96.60;;;;;;5089729;28;19915;-71
2023/10/01 01:14:12;;;;;;;;;;;15.00;96.60;;;;;;5087866;28;19919;-71
2023/10/01 01:16:38;;;;;;;;;;;14.90;96.90;;;;;;5092353;28;19912;-71
2023/10/01 01:19:04;;;;;;;;;;;14.90;96.60;;;;;;5093398;28;20290;-71
2023/10/01 01:21:31;;;;;;;;;;;14.90;96.60;;;;;;5093325;28;19909;-71
2023/10/01 01:23:57;;;;;;;;;;;14.90;96.60;;;;;;5093180;28;20035;-71
2023/10/01 01:26:23;;;;;;;;;;;14.90;96.60;;;;;;5093335;28;19924;-71
2023/10/01 01:28:49;;;;;;;;;;;14.90;96.60;;;;;;5092709;28;20002;-71
2023/10/01 01:31:14;;;;;;;;;;;14.80;96.60;;;;;;5092956;28;19977;-71
2023/10/01 01:33:40;;;;;;;;;;;14.80;96.60;;;;;;5092502;28;19908;-71
2023/10/01 01:36:09;;;;;;;;;;;14.80;96.60;;;;;;5101089;28;19907;-71
2023/10/01 01:38:36;;;;;;;;;;;14.80;96.60;;;;;;5093262;28;19915;-71
2023/10/01 01:41:03;;;;;;;;;;;14.80;96.60;;;;;;5093259;28;19908;-71
2023/10/01 01:43:32;;;;;;;;;;;14.80;96.60;;;;;;5099090;28;20480;-71
2023/10/01 01:46:00;;;;;;;;;;;14.80;96.60;;;;;;5092574;28;19913;-71
2023/10/01 01:50:58;;;;;;;;;;;14.80;96.60;;;;;;5101586;28;20409;-71
2023/10/01 01:53:27;;;;;;;;;;;14.80;96.60;;;;;;5101439;28;19950;-71
2023/10/01 01:55:59;;;;;;;;;;;14.80;96.60;;;;;;5107779;28;20463;-71
2023/10/01 01:58:26;;;;;;;;;;;14.70;96.60;;;;;;5105041;28;20354;-71
2023/10/01 02:01:01;;;;;;;;;;;14.80;96.60;;;;;;5105673;28;20272;-71
2023/10/01 02:03:27;;;;;;;;;;;14.70;96.60;;;;;;5092628;28;19932;-71
2023/10/01 02:05:52;;;;;;;;;;;14.70;96.60;;;;;;5100200;28;20318;-71
2023/10/01 02:08:24;;;;;;;;;;;14.70;96.60;;;;;;5093064;28;19923;-71
2023/10/01 02:10:54;;;;;;;;;;;14.70;96.60;;;;;;5099545;28;19918;-71
2023/10/01 02:13:21;;;;;;;;;;;14.70;96.60;;;;;;5093711;28;20651;-71
2023/10/01 02:15:47;;;;;;;;;;;14.70;96.60;;;;;;5104333;28;20544;-71
2023/10/01 02:18:20;;;;;;;;;;;14.70;96.60;;;;;;5107472;28;19912;-71
2023/10/01 02:20:51;;;;;;;;;;;14.70;96.60;;;;;;5100656;28;19908;-71
2023/10/01 02:23:26;;;;;;;;;;;14.70;96.70;;;;;;5092032;28;19915;-71
2023/10/01 02:25:57;;;;;;;;;;;14.70;96.60;;;;;;5091472;28;20321;-71
2023/10/01 02:28:24;;;;;;;;;;;14.70;96.60;;;;;;5091615;28;19908;-71
2023/10/01 02:30:56;;;;;;;;;;;14.70;96.60;;;;;;5091749;28;20008;-71
2023/10/01 02:33:22;;;;;;;;;;;14.70;96.60;;;;;;5101791;28;19919;-71
2023/10/01 02:35:55;;;;;;;;;;;14.60;96.60;;;;;;5107149;28;19908;-71
2023/10/01 02:41:08;;;;;;;;;;;14.60;96.60;;;;;;5085841;28;19961;-71
2023/10/01 02:43:34;;;;;;;;;;;14.60;96.60;;;;;;5091674;28;19912;-71
2023/10/01 02:46:07;;;;;;;;;;;14.60;96.60;;;;;;5091397;28;19930;-71
2023/10/01 02:48:34;;;;;;;;;;;14.60;96.60;;;;;;5098878;28;19908;-70
2023/10/01 02:51:14;;;;;;;;;;;14.60;96.60;;;;;;5108226;28;19919;-70
2023/10/01 02:53:42;;;;;;;;;;;14.60;96.60;;;;;;5106223;28;19919;-70
2023/10/01 02:56:12;;;;;;;;;;;14.60;96.60;;;;;;5091326;28;20388;-70
2023/10/01 02:58:49;;;;;;;;;;;14.60;96.60;;;;;;5091439;28;19912;-71
2023/10/01 03:01:15;;;;;;;;;;;14.60;96.60;;;;;;5093516;28;19908;-71
2023/10/01 03:03:40;;;;;;;;;;;14.60;96.60;;;;;;5101402;28;20084;-71
2023/10/01 03:06:09;;;;;;;;;;;14.60;96.70;;;;;;5088574;28;19916;-70
2023/10/01 03:11:16;;;;;;;;;;;14.50;96.60;;;;;;5109475;28;19915;-70
2023/10/01 03:13:46;;;;;;;;;;;14.50;96.60;;;;;;5105351;28;20383;-70
2023/10/01 03:19:03;;;;;;;;;;;14.50;96.60;;;;;;5098193;28;20691;-70
2023/10/01 03:24:13;;;;;;;;;;;14.50;96.60;;;;;;5090199;28;19957;-70
2023/10/01 03:26:44;;;;;;;;;;;14.50;96.60;;;;;;5090648;28;20015;-70
2023/10/01 03:29:21;;;;;;;;;;;14.50;96.60;;;;;;5090439;28;20265;-70
2023/10/01 03:31:46;;;;;;;;;;;14.50;96.60;;;;;;5090630;28;19951;-70
2023/10/01 03:34:43;;;;;;;;;;;14.50;96.60;;;;;;5093243;28;19954;-70
2023/10/01 03:37:01;;;;;;;;;;;14.50;96.60;;;;;;5107567;28;19912;-70
2023/10/01 03:39:27;;;;;;;;;;;14.50;96.60;;;;;;5108544;28;20038;-70
2023/10/01 03:42:13;;;;;;;;;;;14.50;96.60;;;;;;5090576;28;19919;-70
2023/10/01 03:47:23;;;;;;;;;;;14.50;96.60;;;;;;5088573;28;19965;-70
2023/10/01 03:49:54;;;;;;;;;;;14.50;96.60;;;;;;5085757;28;19912;-70
2023/10/01 03:52:20;;;;;;;;;;;14.50;96.60;;;;;;5091784;28;19954;-70
2023/10/01 03:54:54;;;;;;;;;;;14.50;96.60;;;;;;5104087;28;19935;-70
2023/10/01 03:57:19;;;;;;;;;;;14.50;96.50;;;;;;5097095;28;19916;-70
2023/10/01 03:59:52;;;;;;;;;;;14.50;96.50;;;;;;5090143;28;19915;-70
2023/10/01 04:02:27;;;;;;;;;;;14.50;96.50;;;;;;5089967;28;19915;-70
2023/10/01 04:04:56;;;;;;;;;;;14.60;96.60;;;;;;5081560;28;19920;-70
2023/10/01 04:07:22;;;;;;;;;;;14.60;96.50;;;;;;5089856;28;19965;-70
2023/10/01 04:09:50;;;;;;;;;;;14.60;96.50;;;;;;5096842;28;20272;-70
2023/10/01 04:12:19;;;;;;;;;;;14.60;96.50;;;;;;5106442;28;19907;-70
2023/10/01 04:15:01;;;;;;;;;;;14.60;96.50;;;;;;5096806;28;19909;-70
2023/10/01 04:17:28;;;;;;;;;;;14.60;96.40;;;;;;5084366;28;19908;-70
2023/10/01 04:20:00;;;;;;;;;;;14.60;96.50;;;;;;5094376;28;20296;-70
2023/10/01 04:22:28;;;;;;;;;;;14.60;96.50;;;;;;5093582;28;19964;-70
2023/10/01 04:25:12;;;;;;;;;;;14.60;96.40;;;;;;5092752;28;19916;-70
2023/10/01 04:27:41;;;;;;;;;;;14.60;96.40;;;;;;5090067;28;19992;-70
2023/10/01 04:30:08;;;;;;;;;;;14.60;96.40;;;;;;5088329;28;19991;-70
2023/10/01 04:32:34;;;;;;;;;;;14.60;96.40;;;;;;5093277;28;20557;-70
2023/10/01 04:35:01;;;;;;;;;;;14.60;96.40;;;;;;5101725;28;19918;-70
2023/10/01 04:37:48;;;;;;;;;;;14.60;96.40;;;;;;5081848;28;19915;-70
2023/10/01 04:43:02;;;;;;;;;;;14.60;96.40;;;;;;5093496;28;19919;-70
2023/10/01 04:45:36;;;;;;;;;;;14.60;96.40;;;;;;5089329;28;19923;-70
2023/10/01 04:48:10;;;;;;;;;;;14.60;96.40;;;;;;5096859;28;19969;-70
2023/10/01 04:50:37;;;;;;;;;;;14.60;96.40;;;;;;5094526;28;19908;-70
2023/10/01 04:53:07;;;;;;;;;;;14.60;96.40;;;;;;5112899;28;19908;-70
2023/10/01 04:55:40;;;;;;;;;;;14.60;96.40;;;;;;5107768;28;19908;-70
2023/10/01 04:58:12;;;;;;;;;;;14.60;96.40;;;;;;5107171;27;19999;-70
2023/10/01 05:00:41;;;;;;;;;;;14.60;96.40;;;;;;5096387;28;20528;-70
2023/10/01 05:03:08;;;;;;;;;;;14.60;96.40;;;;;;5095913;28;19912;-70
2023/10/01 05:05:36;;;;;;;;;;;14.60;96.40;;;;;;5100269;28;19942;-70
2023/10/01 05:08:04;;;;;;;;;;;14.60;96.40;;;;;;5107891;27;20364;-70
2023/10/01 05:10:29;;;;;;;;;;;14.60;96.50;;;;;;5096284;28;19916;-70
2023/10/01 05:12:58;;;;;;;;;;;14.60;96.40;;;;;;5112284;28;19915;-70
2023/10/01 05:15:31;;;;;;;;;;;14.60;96.50;;;;;;5116215;27;19912;-70
2023/10/01 05:17:59;;;;;;;;;;;14.60;96.40;;;;;;5115307;27;19964;-70
2023/10/01 05:20:28;;;;;;;;;;;14.60;96.40;;;;;;5104553;27;19958;-70
2023/10/01 05:22:57;;;;;;;;;;;14.70;96.40;;;;;;5104451;28;19915;-70
2023/10/01 05:25:27;;;;;;;;;;;14.70;96.40;;;;;;5095267;28;20002;-70
2023/10/01 05:27:54;;;;;;;;;;;14.60;96.30;;;;;;5095930;28;20318;-70
2023/10/01 05:30:34;;;;;;;;;;;14.70;96.40;;;;;;5102699;28;19978;-71
2023/10/01 05:33:01;;;;;;;;;;;14.70;96.30;;;;;;5098359;28;19947;-71
2023/10/01 05:35:28;;;;;;;;;;;14.60;96.30;;;;;;5098152;27;19912;-71
2023/10/01 05:37:55;;;;;;;;;;;14.60;96.40;;;;;;5103657;28;20209;-71
2023/10/01 05:40:25;;;;;;;;;;;14.60;96.40;;;;;;5097998;28;20803;-71
2023/10/01 05:42:53;;;;;;;;;;;14.60;96.30;;;;;;5109169;27;20607;-71
2023/10/01 05:45:19;;;;;;;;;;;14.60;96.40;;;;;;5095518;28;20555;-71
2023/10/01 05:47:51;;;;;;;;;;;14.60;96.40;;;;;;5109268;28;19950;-71
2023/10/01 05:50:18;;;;;;;;;;;14.60;96.40;;;;;;5097162;28;20285;-71
2023/10/01 05:52:45;;;;;;;;;;;14.60;96.40;;;;;;5095935;28;19912;-71
2023/10/01 05:55:15;;;;;;;;;;;14.60;96.40;;;;;;5095842;28;19916;-71
2023/10/01 05:57:41;;;;;;;;;;;14.60;96.40;;;;;;5095876;28;19940;-71
2023/10/01 06:00:16;;;;;;;;;;;14.60;96.40;;;;;;5095713;28;19979;-71
2023/10/01 06:03:00;;;;;;;;;;;14.60;96.50;;;;;;5089954;28;20348;-71
2023/10/01 06:05:50;;;;;;;;;;;14.50;96.40;;;;;;5100724;28;19953;-71
2023/10/01 06:08:17;;;;;;;;;;;14.50;96.40;;;;;;5092033;28;19915;-71
2023/10/01 06:10:56;;;;;;;;;;;14.50;96.40;;;;;;5092584;28;19923;-71
2023/10/01 06:13:24;;;;;;;;;;;14.50;96.40;;;;;;5095020;28;19916;-71
2023/10/01 06:15:49;;;;;;;;;;;14.50;96.40;;;;;;5112396;28;20421;-71
2023/10/01 06:18:15;;;;;;;;;;;14.50;96.40;;;;;;5109450;27;19998;-71
2023/10/01 06:20:42;;;;;;;;;;;14.50;96.40;;;;;;5097845;28;19934;-71
2023/10/01 06:23:07;;;;;;;;;;;14.50;96.40;;;;;;5094683;28;19992;-71
2023/10/01 06:25:43;;;;;;;;;;;14.50;96.40;;;;;;5094055;28;20410;-70
2023/10/01 06:28:09;;;;;;;;;;;14.60;96.40;;;;;;5096350;28;19912;-71
2023/10/01 06:30:43;;;;;;;;;;;14.50;96.40;;;;;;5097480;28;19963;-71
2023/10/01 06:33:24;;;;;;;;;;;14.50;96.40;;;;;;5089636;28;19912;-71
2023/10/01 06:38:44;;;;;;;;;;;14.50;96.30;;;;;;5091883;28;20413;-70
2023/10/01 06:41:13;;;;;;;;;;;14.60;96.30;;;;;;5090844;28;19999;-70
2023/10/01 06:43:48;;;;;;;;;;;14.60;96.40;;;;;;5099231;28;19966;-70
2023/10/01 06:46:21;;;;;;;;;;;14.60;96.30;;;;;;5092235;28;19913;-70
2023/10/01 06:48:48;;;;;;;;;;;14.50;96.30;;;;;;5103055;28;20003;-70
2023/10/01 06:51:21;;;;;;;;;;;14.60;96.30;;;;;;5090849;28;19970;-70
2023/10/01 06:53:53;;;;;;;;;;;14.60;96.30;;;;;;5094054;28;19924;-71
2023/10/01 06:56:20;;;;;;;;;;;14.60;96.30;;;;;;5091660;28;19908;-71
2023/10/01 06:59:13;;;;;;;;;;;14.60;96.30;;;;;;5099206;28;19919;-71
2023/10/01 07:01:42;;;;;;;;;;;14.60;96.30;;;;;;5095539;27;19919;-71
2023/10/01 07:04:08;;;;;;;;;;;14.60;96.30;;;;;;5095479;28;19969;-71
2023/10/01 07:06:36;;;;;;;;;;;14.60;96.20;;;;;;5099190;27;20285;-71
2023/10/01 07:12:09;;;;;;;;;;;14.60;96.30;;;;;;5077701;28;19919;-71
2023/10/01 07:14:45;;;;;;;;;;;14.60;96.30;;;;;;5090911;28;19912;-71
2023/10/01 07:17:14;;;;;;;;;;;14.60;96.30;;;;;;5099532;28;20057;-71
2023/10/01 07:19:43;;;;;;;;;;;14.60;96.20;;;;;;5098089;27;20414;-71
2023/10/01 07:22:09;;;;;;;;;;;14.60;96.30;;;;;;5090527;28;19934;-71
2023/10/01 07:24:40;;;;;;;;;;;14.60;96.30;;;;;;5088955;28;20368;-71
2023/10/01 07:27:06;;;;;;;;;;;14.60;96.20;;;;;;5090336;28;19994;-71
2023/10/01 07:29:33;;;;;;;;;;;14.60;96.20;;;;;;5089137;28;19912;-71
2023/10/01 07:32:06;;;;;;;;;;;14.60;96.20;;;;;;5088711;28;19913;-71
2023/10/01 07:34:32;;;;;;;;;;;14.70;96.20;;;;;;5081082;28;19931;-71
2023/10/01 07:36:59;;;;;;;;;;;14.70;96.20;;;;;;5098699;28;19912;-71
2023/10/01 07:39:30;;;;;;;;;;;14.70;96.10;;;;;;5098258;28;19959;-70
2023/10/01 07:41:59;;;;;;;;;;;14.70;96.10;;;;;;5085591;28;19998;-70
2023/10/01 07:44:24;;;;;;;;;;;14.70;96.10;;;;;;5088903;28;19920;-70
2023/10/01 07:46:50;;;;;;;;;;;14.70;96.10;;;;;;5092220;28;20387;-70
2023/10/01 07:49:18;;;;;;;;;;;14.80;96.10;;;;;;5089851;28;19915;-70
2023/10/01 07:51:44;;;;;;;;;;;14.80;96.00;;;;;;5089569;28;19912;-70
2023/10/01 07:54:10;;;;;;;;;;;14.80;96.00;;;;;;5089496;28;19908;-70
2023/10/01 07:56:39;;;;;;;;;;;14.80;96.00;;;;;;5089255;28;19915;-70
2023/10/01 07:59:28;;;;;;;;;;;14.90;96.00;;;;;;5097279;28;19909;-70
2023/10/01 08:03:27;;;;;;;;;;;14.80;96.00;;;;;;5088617;28;20272;-70
2023/10/01 08:07:17;;;;;;;;;;;14.90;96.00;;;;;;5097567;28;19920;-70
2023/10/01 08:09:51;;;;;;;;;;;14.90;96.00;;;;;;5090041;28;19908;-70
2023/10/01 08:12:19;;;;;;;;;;;15.00;95.90;;;;;;5087772;28;19970;-70
2023/10/01 08:15:15;;;;;;;;;;;15.00;95.90;;;;;;5088163;28;19919;-70
2023/10/01 08:17:32;;;;;;;;;;;15.10;96.00;;;;;;5101377;28;19911;-70
2023/10/01 08:20:14;;;;;;;;;;;15.10;95.90;;;;;;5101069;28;19912;-70
2023/10/01 08:23:12;;;;;;;;;;;15.10;96.00;;;;;;5095631;28;19919;-70
2023/10/01 08:25:42;;;;;;;;;;;15.20;96.10;;;;;;5104656;28;19920;-70
2023/10/01 08:28:29;;;;;;;;;;;15.20;95.80;;;;;;5097871;28;19960;-70
2023/10/01 08:31:20;;;;;;;;;;;15.20;95.80;;;;;;5102237;27;19953;-70
2023/10/01 08:33:51;;;;;;;;;;;15.30;95.70;;;;;;5089429;28;19908;-70
2023/10/01 08:36:17;;;;;;;;;;;15.30;95.80;;;;;;5089358;28;20337;-70
2023/10/01 08:39:19;;;;;;;;;;;15.30;95.70;;;;;;5094794;28;19969;-70
2023/10/01 08:41:35;;;;;;;;;;;15.40;95.80;;;;;;5088436;28;19911;-70
2023/10/01 08:44:10;;;;;;;;;;;15.40;95.80;;;;;;5089536;28;20253;-70
2023/10/01 08:46:39;;;;;;;;;;;15.50;95.70;;;;;;5094271;28;20260;-70
2023/10/01 08:49:22;;;;;;;;;;;15.50;95.80;;;;;;5097143;28;19962;-70
2023/10/01 08:51:48;;;;;;;;;;;15.50;95.70;;;;;;5087751;28;19961;-70
2023/10/01 08:54:14;;;;;;;;;;;15.60;95.60;;;;;;5088518;28;20013;-70
2023/10/01 08:56:44;;;;;;;;;;;15.60;95.60;;;;;;5094181;28;19916;-70
2023/10/01 08:59:23;;;;;;;;;;;15.70;95.60;;;;;;5100213;28;19959;-70
2023/10/01 09:01:52;;;;;;;;;;;15.70;95.70;;;;;;5095178;28;19957;-70
2023/10/01 09:04:44;;;;;;;;;;;15.70;95.40;;;;;;5092684;28;19916;-70
2023/10/01 09:07:19;;;;;;;;;;;15.80;95.50;;;;;;5108872;28;20462;-70
2023/10/01 09:10:05;;;;;;;;;;;15.80;95.40;;;;;;5089331;28;20313;-70
2023/10/01 09:12:35;;;;;;;;;;;15.90;95.40;;;;;;5088939;28;19915;-70
2023/10/01 09:15:02;;;;;;;;;;;15.90;95.30;;;;;;5088990;28;19908;-70
2023/10/01 09:17:40;;;;;;;;;;;16.00;95.70;;;;;;5094481;28;19916;-70
2023/10/01 09:20:09;;;;;;;;;;;16.00;95.30;;;;;;5101651;28;19911;-70
2023/10/01 09:25:19;;;;;;;;;;;16.00;95.40;;;;;;5100409;28;19922;-70
2023/10/01 09:27:57;;;;;;;;;;;16.10;95.30;;;;;;5094312;28;19924;-71
2023/10/01 09:30:34;;;;;;;;;;;16.10;95.50;;;;;;5104309;28;19918;-71
2023/10/01 09:33:05;;;;;;;;;;;16.10;95.50;;;;;;5087897;28;19912;-71
2023/10/01 09:35:41;;;;;;;;;;;16.20;95.30;;;;;;5087487;28;19908;-71
2023/10/01 09:38:11;;;;;;;;;;;16.20;95.20;;;;;;5091825;28;19938;-71
2023/10/01 09:40:43;;;;;;;;;;;16.30;95.30;;;;;;5093871;28;20019;-71
2023/10/01 09:43:18;;;;;;;;;;;16.30;95.20;;;;;;5084479;28;19969;-71
2023/10/01 09:45:47;;;;;;;;;;;16.30;95.40;;;;;;5091210;28;20444;-71
2023/10/01 09:48:29;;;;;;;;;;;16.40;95.30;;;;;;5098443;28;19912;-71
2023/10/01 09:51:03;;;;;;;;;;;16.40;95.30;;;;;;5086686;28;19995;-71
2023/10/01 09:53:31;;;;;;;;;;;16.40;95.20;;;;;;5093502;28;20000;-71
2023/10/01 09:55:59;;;;;;;;;;;16.40;95.20;;;;;;5087280;28;19912;-71
2023/10/01 09:58:24;;;;;;;;;;;16.40;95.10;;;;;;5122465;27;19908;-71
2023/10/01 10:00:54;;;;;;;;;;;16.50;95.10;;;;;;5099528;28;19908;-71
2023/10/01 10:03:20;;;;;;;;;;;16.60;95.20;;;;;;5089770;28;20399;-71
2023/10/01 10:05:46;;;;;;;;;;;16.60;95.10;;;;;;5104810;28;19911;-71
2023/10/01 10:08:16;;;;;;;;;;;16.60;95.10;;;;;;5101843;28;19915;-71
2023/10/01 10:10:48;;;;;;;;;;;16.70;95.00;;;;;;5090725;28;20539;-71
2023/10/01 10:13:33;;;;;;;;;;;16.70;95.00;;;;;;5081638;28;19958;-71
2023/10/01 10:16:00;;;;;;;;;;;16.80;95.00;;;;;;5097169;28;20536;-71
2023/10/01 10:18:25;;;;;;;;;;;16.80;95.00;;;;;;5107087;28;19916;-71
2023/10/01 10:20:58;;;;;;;;;;;16.90;94.90;;;;;;5090548;28;20005;-71
2023/10/01 10:23:29;;;;;;;;;;;16.90;94.90;;;;;;5090659;28;20265;-71
2023/10/01 10:26:33;;;;;;;;;;;17.00;95.20;;;;;;5081311;28;19973;-71
2023/10/01 10:28:58;;;;;;;;;;;17.00;95.10;;;;;;5085851;28;20455;-71
2023/10/01 10:31:29;;;;;;;;;;;17.10;94.80;;;;;;5081870;28;19916;-71
2023/10/01 10:34:21;;;;;;;;;;;17.10;94.80;;;;;;5089915;28;19912;-71
2023/10/01 10:36:50;;;;;;;;;;;17.20;95.10;;;;;;5084126;28;19915;-71
2023/10/01 10:39:39;;;;;;;;;;;17.20;94.90;;;;;;5089382;28;19908;-71
2023/10/01 10:42:30;;;;;;;;;;;17.20;94.90;;;;;;5106657;28;20379;-71
2023/10/01 10:45:20;;;;;;;;;;;17.20;94.80;;;;;;5092015;28;19958;-71
2023/10/01 10:47:58;;;;;;;;;;;17.40;95.00;;;;;;5094193;28;20336;-71
2023/10/01 10:50:44;;;;;;;;;;;17.40;94.90;;;;;;5096810;27;19911;-71
2023/10/01 10:53:19;;;;;;;;;;;17.40;94.90;;;;;;5086989;28;19908;-71
2023/10/01 10:56:01;;;;;;;;;;;17.50;95.00;;;;;;5093035;28;19918;-71
2023/10/01 10:58:28;;;;;;;;;;;17.50;94.90;;;;;;5081310;28;19913;-71
2023/10/01 11:00:55;;;;;;;;;;;17.60;95.00;;;;;;5089039;28;19915;-71
2023/10/01 11:03:40;;;;;;;;;;;17.60;94.80;;;;;;5087101;28;19990;-71
2023/10/01 11:06:22;;;;;;;;;;;17.70;94.80;;;;;;5077785;28;19916;-70
2023/10/01 11:08:51;;;;;;;;;;;17.80;94.80;;;;;;5081461;28;19935;-71
2023/10/01 11:11:21;;;;;;;;;;;17.80;94.70;;;;;;5088502;28;19912;-70
2023/10/01 11:13:46;;;;;;;;;;;17.90;94.90;;;;;;5087316;28;20676;-70
2023/10/01 11:16:15;;;;;;;;;;;17.90;94.90;;;;;;5088625;28;19938;-70
2023/10/01 11:18:44;;;;;;;;;;;18.00;94.80;;;;;;5096591;28;19948;-70
2023/10/01 11:21:20;;;;;;;;;;;18.10;95.00;;;;;;5088603;28;19919;-70
2023/10/01 11:23:53;;;;;;;;;;;18.20;94.70;;;;;;5080013;28;19965;-70
2023/10/01 11:26:29;;;;;;;;;;;18.20;94.60;;;;;;5088245;28;19916;-70
2023/10/01 11:29:01;;;;;;;;;;;18.30;94.60;;;;;;5087847;28;20414;-70
2023/10/01 11:31:28;;;;;;;;;;;18.40;94.60;;;;;;5106795;28;19943;-70
2023/10/01 11:33:57;;;;;;;;;;;18.40;94.90;;;;;;5101627;28;19909;-70
2023/10/01 11:36:23;;;;;;;;;;;18.50;94.60;;;;;;5090034;28;19912;-70
2023/10/01 11:38:50;;;;;;;;;;;18.60;94.60;;;;;;5094270;28;19912;-70
2023/10/01 11:41:18;;;;;;;;;;;18.70;95.10;;;;;;5084931;28;19912;-70
2023/10/01 11:44:00;;;;;;;;;;;18.80;95.10;;;;;;5083177;28;19966;-70
2023/10/01 11:46:35;;;;;;;;;;;18.80;95.20;;;;;;5091285;28;20372;-70
2023/10/01 11:49:06;;;;;;;;;;;19.00;95.10;;;;;;5096597;28;19919;-70
2023/10/01 11:51:36;;;;;;;;;;;19.00;95.10;;;;;;5076212;28;20376;-70
2023/10/01 11:54:09;;;;;;;;;;;19.10;95.20;;;;;;5074533;28;19916;-70
2023/10/01 11:56:40;;;;;;;;;;;19.10;95.40;;;;;;5091495;28;19912;-70
2023/10/01 11:59:08;;;;;;;;;;;19.20;95.50;;;;;;5091038;28;20031;-70
2023/10/01 12:01:46;;;;;;;;;;;19.20;95.40;;;;;;5079375;28;19981;-70
2023/10/01 12:04:21;;;;;;;;;;;19.30;95.30;;;;;;5087669;28;19943;-70
2023/10/01 12:06:56;;;;;;;;;;;19.40;95.80;;;;;;5088684;28;19912;-70
2023/10/01 12:09:24;;;;;;;;;;;19.40;95.80;;;;;;5088437;28;19924;-70
2023/10/01 12:12:03;;;;;;;;;;;19.40;95.70;;;;;;5093133;28;19912;-70
2023/10/01 12:14:32;;;;;;;;;;;19.50;95.50;;;;;;5090486;28;19927;-70
2023/10/01 12:17:01;;;;;;;;;;;19.50;95.80;;;;;;5091979;28;20300;-70
2023/10/01 12:19:26;;;;;;;;;;;19.60;95.80;;;;;;5090052;28;20065;-70
2023/10/01 12:22:09;;;;;;;;;;;19.70;95.90;;;;;;5091688;28;20443;-70
2023/10/01 12:24:39;;;;;;;;;;;19.70;95.70;;;;;;5090731;28;19920;-70
2023/10/01 12:27:11;;;;;;;;;;;19.80;95.30;;;;;;5095513;28;19924;-70
2023/10/01 12:29:48;;;;;;;;;;;19.90;95.40;;;;;;5091621;28;19916;-70
2023/10/01 12:32:14;;;;;;;;;;;19.90;95.60;;;;;;5093331;28;19912;-70
2023/10/01 12:34:42;;;;;;;;;;;20.00;95.80;;;;;;5081024;28;20286;-70
2023/10/01 12:37:35;;;;;;;;;;;20.10;95.60;;;;;;5083576;28;20006;-70
2023/10/01 12:40:14;;;;;;;;;;;20.10;95.90;;;;;;5078903;28;20447;-70
2023/10/01 12:42:39;;;;;;;;;;;20.10;95.90;;;;;;5091569;28;20291;-70
2023/10/01 12:45:14;;;;;;;;;;;20.20;95.70;;;;;;5088117;28;19912;-70
2023/10/01 12:47:50;;;;;;;;;;;20.20;95.80;;;;;;5086255;28;19942;-70
2023/10/01 12:50:26;;;;;;;;;;;20.20;95.60;;;;;;5088711;28;19923;-70
2023/10/01 12:53:19;;;;;;;;;;;20.30;95.60;;;;;;5101754;28;19916;-70
2023/10/01 12:55:51;;;;;;;;;;;20.40;95.40;;;;;;5098761;28;20390;-70
2023/10/01 12:58:18;;;;;;;;;;;20.40;95.20;;;;;;5085268;28;19916;-71
2023/10/01 13:00:45;;;;;;;;;;;20.50;95.20;;;;;;5088233;28;19912;-71
2023/10/01 13:03:16;;;;;;;;;;;20.60;95.40;;;;;;5086817;28;19916;-71
2023/10/01 13:05:44;;;;;;;;;;;20.60;95.70;;;;;;5085307;28;19932;-71
2023/10/01 13:08:11;;;;;;;;;;;20.60;95.40;;;;;;5081956;28;19916;-71
2023/10/01 13:10:38;;;;;;;;;;;20.60;95.50;;;;;;5092870;28;19917;-71
2023/10/01 13:13:05;;;;;;;;;;;20.70;95.50;;;;;;5094314;28;19916;-71
2023/10/01 13:15:33;;;;;;;;;;;20.70;95.80;;;;;;5090581;28;19957;-71
2023/10/01 13:18:04;;;;;;;;;;;20.80;95.40;;;;;;5092158;28;19908;-71
2023/10/01 13:20:31;;;;;;;;;;;20.90;95.40;;;;;;5097213;28;20740;-71
2023/10/01 13:22:59;;;;;;;;;;;20.90;95.50;;;;;;5099234;28;20360;-71
2023/10/01 13:25:28;;;;;;;;;;;20.90;95.90;;;;;;5082168;28;19923;-71
2023/10/01 13:28:06;;;;;;;;;;;20.90;95.50;;;;;;5081519;28;19918;-71
2023/10/01 13:31:03;;;;;;;;;;;20.90;95.50;;;;;;5090620;28;19999;-71
2023/10/01 13:33:53;;;;;;;;;;;21.00;95.70;;;;;;5097152;28;20243;-71
2023/10/01 13:36:25;;;;;;;;;;;21.00;95.20;;;;;;5091685;28;20006;-71
2023/10/01 13:39:12;;;;;;;;;;;21.00;95.50;;;;;;5105680;28;19908;-71
2023/10/01 14:08:45;;;;;;;;;;;21.30;95.00;;;;;;5090155;28;20033;-71
2023/10/01 14:11:11;;;;;;;;;;;21.40;94.90;;;;;;5093820;28;20654;-71
2023/10/01 14:13:37;;;;;;;;;;;21.40;95.10;;;;;;5090431;28;19919;-72
2023/10/01 14:16:11;;;;;;;;;;;21.40;95.10;;;;;;5091895;28;19912;-71
2023/10/01 14:18:40;;;;;;;;;;;21.30;94.90;;;;;;5091244;28;19916;-71
2023/10/01 14:21:12;;;;;;;;;;;21.30;95.30;;;;;;5103640;27;20010;-71
2023/10/01 14:23:42;;;;;;;;;;;21.30;94.80;;;;;;5089671;28;19912;-71
2023/10/01 14:26:13;;;;;;;;;;;21.30;95.10;;;;;;5094958;28;19920;-71
2023/10/01 14:28:39;;;;;;;;;;;21.30;95.10;;;;;;5089401;28;19911;-71
2023/10/01 14:31:07;;;;;;;;;;;21.30;95.10;;;;;;5083008;28;20593;-71
2023/10/01 14:33:34;;;;;;;;;;;21.40;94.90;;;;;;5095068;28;20443;-71
2023/10/01 14:36:05;;;;;;;;;;;21.40;94.20;;;;;;5111012;28;20462;-71
2023/10/01 14:38:39;;;;;;;;;;;21.40;94.20;;;;;;5093810;28;19968;-71
2023/10/01 14:41:05;;;;;;;;;;;21.40;94.20;;;;;;5102698;27;19918;-71
2023/10/01 14:43:31;;;;;;;;;;;21.40;94.50;;;;;;5107528;28;20613;-71
2023/10/01 14:45:56;;;;;;;;;;;21.40;94.30;;;;;;5092059;28;19961;-71
2023/10/01 14:48:22;;;;;;;;;;;21.40;94.10;;;;;;5089631;28;19954;-71
2023/10/01 14:50:48;;;;;;;;;;;21.40;94.10;;;;;;5090596;28;19912;-71
2023/10/01 14:53:15;;;;;;;;;;;21.40;93.90;;;;;;5088428;28;19912;-71
2023/10/01 14:55:41;;;;;;;;;;;21.40;93.90;;;;;;5091523;28;20389;-71
2023/10/01 14:58:13;;;;;;;;;;;21.50;94.10;;;;;;5090115;28;20007;-71
2023/10/01 15:00:49;;;;;;;;;;;21.50;94.30;;;;;;5087911;28;20007;-71
2023/10/01 15:03:15;;;;;;;;;;;21.40;93.70;;;;;;5090245;28;19915;-71
2023/10/01 15:05:41;;;;;;;;;;;21.50;93.60;;;;;;5087163;28;19912;-71
2023/10/01 15:08:06;;;;;;;;;;;21.50;93.80;;;;;;5091017;28;19915;-71
2023/10/01 15:10:32;;;;;;;;;;;21.50;93.70;;;;;;5089395;28;20273;-71
2023/10/01 15:12:57;;;;;;;;;;;21.50;93.60;;;;;;5091040;28;20034;-71
2023/10/01 15:15:23;;;;;;;;;;;21.40;93.60;;;;;;5092729;28;19950;-71
2023/10/01 15:17:54;;;;;;;;;;;21.40;93.70;;;;;;5091881;28;19969;-71
2023/10/01 15:20:27;;;;;;;;;;;21.40;93.70;;;;;;5088344;28;19943;-71
2023/10/01 15:22:55;;;;;;;;;;;21.40;93.80;;;;;;5090417;28;20257;-71
2023/10/01 15:25:21;;;;;;;;;;;21.40;93.90;;;;;;5089857;28;20014;-71
2023/10/01 15:27:47;;;;;;;;;;;21.40;93.90;;;;;;5089951;28;19966;-71
2023/10/01 15:30:21;;;;;;;;;;;21.40;94.00;;;;;;5089985;28;19951;-71
2023/10/01 15:32:59;;;;;;;;;;;21.50;93.90;;;;;;5094810;28;19930;-71
2023/10/01 15:35:26;;;;;;;;;;;21.50;93.90;;;;;;5089177;28;19916;-71
2023/10/01 15:37:51;;;;;;;;;;;21.60;93.90;;;;;;5089926;28;19916;-71